createdAt,value
2022-10-05T13:05:59.039Z,60.57
2022-10-05T13:08:49.798Z,61.70
2022-10-05T13:11:55.945Z,60.31
2022-10-05T13:15:07.789Z,60.97
2022-10-05T13:18:04.960Z,60.84
2022-10-05T13:20:45.448Z,61.23
2022-10-05T13:23:25.894Z,62.04
2022-10-05T13:26:11.445Z,61.74
2022-10-05T13:29:11.060Z,61.17
2022-10-05T13:31:46.152Z,60.45
2022-10-05T13:34:32.140Z,60.99
2022-10-05T13:37:33.876Z,59.76
2022-10-05T13:40:06.673Z,59.60
2022-10-05T13:42:52.720Z,59.64
2022-10-05T13:45:30.055Z,60.59
2022-10-05T13:48:34.496Z,59.60
2022-10-05T13:51:59.209Z,60.15
2022-10-05T13:54:50.969Z,59.30
2022-10-05T13:57:51.650Z,58.69
2022-10-05T14:00:26.811Z,59.86
2022-10-05T14:02:56.828Z,61.01
2022-10-05T14:05:27.002Z,60.66
2022-10-05T14:08:02.607Z,60.23
2022-10-05T14:10:42.051Z,59.88
2022-10-05T14:13:23.318Z,60.27
2022-10-05T14:16:01.754Z,60.10
2022-10-05T14:18:33.494Z,59.46
2022-10-05T14:21:08.937Z,60.08
2022-10-05T14:23:35.932Z,59.57
2022-10-05T14:26:31.556Z,59.39
2022-10-05T14:28:58.312Z,60.00
2022-10-05T14:31:51.267Z,60.03
2022-10-05T14:34:32.822Z,60.52
2022-10-05T14:37:05.048Z,61.60
2022-10-05T14:39:34.592Z,60.39
2022-10-05T14:42:15.338Z,60.71
2022-10-05T14:44:42.139Z,61.15
2022-10-05T14:47:22.903Z,60.75
2022-10-05T14:50:15.057Z,60.38
2022-10-05T14:52:51.625Z,60.65
2022-10-05T14:55:37.833Z,61.44
2022-10-05T14:58:28.053Z,61.94
2022-10-05T15:01:13.703Z,62.18
2022-10-05T15:04:03.901Z,62.48
2022-10-05T15:07:03.297Z,62.64
2022-10-05T15:10:22.597Z,62.35
2022-10-05T15:12:50.475Z,62.33
2022-10-05T15:15:38.643Z,62.79
2022-10-05T15:18:31.772Z,63.37
2022-10-05T15:21:34.129Z,63.77
2022-10-05T15:24:07.809Z,63.58
2022-10-05T15:26:43.478Z,63.24
2022-10-05T15:29:36.242Z,63.26
2022-10-05T15:32:24.829Z,63.68
2022-10-05T15:35:28.015Z,63.07
2022-10-05T15:38:27.479Z,63.63
2022-10-05T15:41:06.203Z,63.21
2022-10-05T15:43:58.576Z,64.66
2022-10-05T15:46:35.879Z,65.13
2022-10-05T15:49:38.286Z,64.46
2022-10-05T15:52:07.881Z,64.72
2022-10-05T15:55:06.954Z,64.69
2022-10-05T15:58:01.802Z,64.46
2022-10-05T16:00:30.258Z,65.11
2022-10-05T16:03:18.228Z,65.30
2022-10-05T16:06:08.833Z,65.72
2022-10-05T16:09:25.807Z,67.10
2022-10-05T16:12:18.886Z,65.63
2022-10-05T16:14:54.505Z,67.11
2022-10-05T16:17:59.473Z,66.76
2022-10-05T16:21:04.768Z,67.63
2022-10-05T16:24:18.845Z,68.84
2022-10-05T16:26:59.732Z,68.05
2022-10-05T16:29:54.310Z,68.91
2022-10-05T16:32:30.139Z,69.31
2022-10-05T16:34:59.376Z,68.88
2022-10-05T16:37:50.101Z,68.55
2022-10-05T16:40:41.508Z,69.06
2022-10-05T16:43:26.491Z,69.13
2022-10-05T16:46:19.121Z,69.32
2022-10-05T16:48:54.166Z,68.78
2022-10-05T16:51:43.733Z,70.43
2022-10-05T16:54:23.857Z,70.83
2022-10-05T16:56:59.600Z,70.36
2022-10-05T17:00:01.787Z,72.36
2022-10-05T17:03:06.283Z,72.51
2022-10-05T17:06:20.729Z,73.28
2022-10-05T17:09:12.554Z,73.12
2022-10-05T17:11:57.333Z,73.20
2022-10-05T17:14:54.462Z,73.46
2022-10-05T17:17:27.412Z,73.41
2022-10-05T17:20:12.984Z,74.63
2022-10-05T17:22:51.137Z,75.94
2022-10-05T17:25:24.239Z,76.46
2022-10-05T17:28:15.084Z,76.44
2022-10-05T17:31:13.035Z,78.67
2022-10-05T17:34:26.335Z,79.33
2022-10-05T17:37:17.462Z,79.50
2022-10-05T17:39:52.451Z,76.75
2022-10-05T17:42:40.275Z,79.81
2022-10-05T17:45:11.971Z,80.23
2022-10-05T17:47:57.855Z,80.73
2022-10-05T17:51:02.986Z,81.40
2022-10-05T17:54:04.493Z,81.51
2022-10-05T17:56:54.400Z,81.18
2022-10-05T17:59:44.734Z,80.60
2022-10-05T18:02:40.627Z,79.92
2022-10-05T18:05:12.555Z,80.23
2022-10-05T18:07:40.773Z,79.64
2022-10-05T18:10:11.726Z,81.18
2022-10-05T18:13:04.648Z,81.08
2022-10-05T18:15:31.367Z,81.09
2022-10-05T18:18:20.067Z,80.36
2022-10-05T18:21:29.856Z,80.90
2022-10-05T18:23:59.673Z,80.83
2022-10-05T18:26:59.441Z,82.36
2022-10-05T18:30:03.300Z,84.24
2022-10-05T18:32:56.016Z,84.20
2022-10-05T18:35:56.880Z,86.70
2022-10-05T18:38:52.912Z,87.12
2022-10-05T18:41:46.346Z,87.13
2022-10-05T18:44:35.212Z,87.43
2022-10-05T18:47:33.668Z,88.04
2022-10-05T18:50:18.716Z,88.30
2022-10-05T18:53:09.997Z,87.72
2022-10-05T18:55:45.748Z,88.52
2022-10-05T18:58:22.452Z,88.91
2022-10-05T19:01:05.390Z,87.90
2022-10-05T19:03:49.573Z,89.01
2022-10-05T19:06:30.014Z,90.15
2022-10-05T19:09:24.126Z,89.91
2022-10-05T19:12:05.357Z,86.99
2022-10-05T19:14:41.498Z,89.16
2022-10-05T19:17:10.755Z,89.98
2022-10-05T19:19:57.586Z,91.54
2022-10-05T19:22:45.892Z,91.68
2022-10-05T19:25:39.479Z,91.74
2022-10-05T19:28:23.094Z,91.88
2022-10-05T19:31:11.720Z,92.83
2022-10-05T19:34:16.603Z,92.43
2022-10-05T19:36:49.268Z,92.87
2022-10-05T19:39:31.165Z,93.10
2022-10-05T19:42:22.437Z,93.09
2022-10-05T19:45:15.163Z,96.16
2022-10-05T19:48:07.681Z,95.82
2022-10-05T19:50:38.603Z,95.58
2022-10-05T19:53:14.021Z,96.33
2022-10-05T19:55:43.787Z,96.99
2022-10-05T19:58:28.654Z,96.23
2022-10-05T20:00:55.601Z,94.98
2022-10-05T20:03:29.275Z,95.43
2022-10-05T20:06:08.895Z,95.75
2022-10-05T20:08:43.863Z,96.43
2022-10-05T20:11:12.003Z,96.84
2022-10-05T20:13:47.419Z,97.35
2022-10-05T20:16:35.587Z,97.40
2022-10-05T20:19:34.894Z,96.91
2022-10-05T20:22:35.012Z,95.95
2022-10-05T20:25:29.214Z,96.29
2022-10-05T20:27:57.076Z,95.84
2022-10-05T20:30:27.493Z,96.13
2022-10-05T20:32:58.255Z,96.49
2022-10-05T20:35:27.870Z,95.91
2022-10-05T20:37:59.506Z,96.47
2022-10-05T20:40:29.073Z,97.19
2022-10-05T20:42:56.829Z,97.34
2022-10-05T20:45:23.538Z,98.82
2022-10-05T20:47:51.026Z,98.76
2022-10-05T20:50:17.821Z,98.79
2022-10-05T20:52:44.626Z,98.34
2022-10-05T20:55:11.960Z,98.56
2022-10-05T20:57:42.318Z,97.16
2022-10-05T21:00:12.962Z,99.19
2022-10-05T21:02:39.611Z,99.63
2022-10-05T21:05:07.685Z,99.75
2022-10-05T21:07:35.018Z,98.93
2022-10-05T21:10:03.873Z,99.78
2022-10-05T21:12:30.705Z,99.75
2022-10-05T21:14:57.518Z,99.58
2022-10-05T21:17:24.236Z,100.00
2022-10-05T21:19:52.586Z,100.00
2022-10-05T21:22:19.479Z,100.00
2022-10-05T21:24:46.028Z,100.00
2022-10-05T21:27:12.621Z,100.00
2022-10-05T21:29:41.106Z,100.00
2022-10-05T21:32:12.039Z,100.00
2022-10-05T21:34:39.784Z,100.00
2022-10-05T21:37:08.085Z,100.00
2022-10-05T21:39:35.445Z,100.00
2022-10-05T21:42:02.286Z,100.00
2022-10-05T21:44:28.799Z,100.00
2022-10-05T21:46:56.567Z,100.00
2022-10-05T21:49:23.955Z,100.00
2022-10-05T21:52:00.684Z,100.00
2022-10-05T21:54:28.668Z,100.00
2022-10-05T21:56:57.487Z,100.00
2022-10-05T21:59:26.884Z,100.00
2022-10-05T22:01:54.160Z,100.00
2022-10-05T22:04:20.921Z,100.00
2022-10-05T22:06:49.082Z,100.00
2022-10-05T22:09:15.665Z,100.00
2022-10-05T22:11:42.439Z,100.00
2022-10-05T22:14:09.169Z,100.00
2022-10-05T22:16:38.678Z,100.00
2022-10-05T22:19:10.740Z,100.00
2022-10-05T22:21:41.537Z,100.00
2022-10-05T22:24:11.393Z,100.00
2022-10-05T22:26:41.977Z,100.00
2022-10-05T22:29:09.658Z,100.00
2022-10-05T22:31:36.827Z,100.00
2022-10-05T22:34:03.486Z,100.00
2022-10-05T22:36:30.188Z,100.00
2022-10-05T22:38:56.879Z,100.00
2022-10-05T22:41:23.691Z,100.00
2022-10-05T22:43:51.292Z,100.00
2022-10-05T22:46:18.641Z,100.00
2022-10-05T22:48:45.266Z,100.00
2022-10-05T22:51:12.540Z,100.00
2022-10-05T22:53:39.189Z,100.00
2022-10-05T22:56:08.373Z,100.00
2022-10-05T22:58:35.549Z,100.00
2022-10-05T23:01:04.830Z,100.00
2022-10-05T23:03:32.548Z,100.00
2022-10-05T23:06:14.069Z,100.00
2022-10-05T23:08:41.808Z,100.00
2022-10-05T23:11:16.762Z,100.00
2022-10-05T23:13:44.005Z,100.00
2022-10-05T23:16:16.697Z,100.00
2022-10-05T23:18:44.649Z,100.00
2022-10-05T23:21:12.091Z,100.00
2022-10-05T23:23:40.711Z,100.00
2022-10-05T23:26:09.840Z,100.00
2022-10-05T23:28:38.391Z,100.00
2022-10-05T23:31:07.349Z,100.00
2022-10-05T23:33:34.871Z,100.00
2022-10-05T23:36:04.810Z,100.00
2022-10-05T23:38:32.190Z,100.00
2022-10-05T23:40:59.774Z,100.00
2022-10-05T23:43:27.316Z,100.00
2022-10-05T23:45:54.073Z,100.00
2022-10-05T23:48:21.420Z,100.00
2022-10-05T23:50:49.500Z,100.00
2022-10-05T23:53:17.278Z,100.00
2022-10-05T23:55:43.871Z,100.00
2022-10-05T23:58:11.093Z,100.00
